Terminal Aerodrome Forecast
Issued by NWS

Home | Current Version | Previous Version | Text Only | Print | Product List | Glossary On
Versions: 1 2 3 4 5 6 7 8 9 10 11 12 13 14
492
FTPA31 PHFO 231140
TAFSTU
TAF
NSTU 231140Z 2312/2412 02011KT P6SM VCTS SCT015CB BKN035 OVC050
      TEMPO 2312/2316 VRB15G25KT 3SM +SHRA BR SCT007 BKN015=

USA.gov is the U.S. government's official web portal to all federal, state and local government web resources and services.